sensor_id;sensor_type;location;lat;lon;timestamp;pressure;altitude;pressure_sealevel;temperature;humidity
72370;BME280;60343;-32.030;115.880;2023-07-13T00:02:28;101776.50;;;16.59;98.46
72370;BME280;60343;-32.030;115.880;2023-07-13T00:05:03;101775.72;;;16.65;98.25
72370;BME280;60343;-32.030;115.880;2023-07-13T00:07:39;101780.00;;;16.74;98.59
72370;BME280;60343;-32.030;115.880;2023-07-13T00:10:20;101797.13;;;16.81;98.64
72370;BME280;60343;-32.030;115.880;2023-07-13T00:12:56;101807.97;;;16.81;98.69
72370;BME280;60343;-32.030;115.880;2023-07-13T00:15:31;101807.78;;;16.83;98.44
72370;BME280;60343;-32.030;115.880;2023-07-13T00:18:07;101804.63;;;16.79;98.37
72370;BME280;60343;-32.030;115.880;2023-07-13T00:20:42;101799.09;;;16.87;98.04
72370;BME280;60343;-32.030;115.880;2023-07-13T00:23:17;101807.88;;;16.89;98.52
72370;BME280;60343;-32.030;115.880;2023-07-13T00:25:58;101812.97;;;16.99;98.38
72370;BME280;60343;-32.030;115.880;2023-07-13T00:28:34;101815.84;;;17.12;97.59
72370;BME280;60343;-32.030;115.880;2023-07-13T00:31:11;101820.16;;;17.28;97.46
72370;BME280;60343;-32.030;115.880;2023-07-13T00:33:47;101826.59;;;17.27;96.93
72370;BME280;60343;-32.030;115.880;2023-07-13T00:36:22;101837.69;;;17.32;96.81
72370;BME280;60343;-32.030;115.880;2023-07-13T00:38:57;101842.81;;;17.41;95.72
72370;BME280;60343;-32.030;115.880;2023-07-13T00:41:39;101831.13;;;17.41;94.84
72370;BME280;60343;-32.030;115.880;2023-07-13T00:44:15;101837.88;;;17.45;94.53
72370;BME280;60343;-32.030;115.880;2023-07-13T00:46:51;101846.44;;;17.48;94.18
72370;BME280;60343;-32.030;115.880;2023-07-13T00:49:30;101845.75;;;17.61;93.81
72370;BME280;60343;-32.030;115.880;2023-07-13T00:52:08;101853.09;;;17.67;93.03
72370;BME280;60343;-32.030;115.880;2023-07-13T00:54:46;101850.72;;;17.79;91.81
72370;BME280;60343;-32.030;115.880;2023-07-13T00:57:28;101857.59;;;17.81;88.46
72370;BME280;60343;-32.030;115.880;2023-07-13T01:00:06;101868.94;;;17.91;88.41
72370;BME280;60343;-32.030;115.880;2023-07-13T01:02:44;101867.09;;;17.92;87.70
72370;BME280;60343;-32.030;115.880;2023-07-13T01:05:23;101864.34;;;17.85;86.89
72370;BME280;60343;-32.030;115.880;2023-07-13T01:08:00;101859.81;;;17.92;81.52
72370;BME280;60343;-32.030;115.880;2023-07-13T01:10:36;101879.22;;;17.96;80.36
72370;BME280;60343;-32.030;115.880;2023-07-13T01:13:19;101874.50;;;17.83;80.79
72370;BME280;60343;-32.030;115.880;2023-07-13T01:15:55;101883.56;;;17.69;82.39
72370;BME280;60343;-32.030;115.880;2023-07-13T01:18:32;101884.16;;;17.50;83.91
72370;BME280;60343;-32.030;115.880;2023-07-13T01:21:13;101891.53;;;17.41;85.25
72370;BME280;60343;-32.030;115.880;2023-07-13T01:23:49;101907.78;;;17.41;86.76
72370;BME280;60343;-32.030;115.880;2023-07-13T01:26:24;101898.66;;;17.28;87.83
72370;BME280;60343;-32.030;115.880;2023-07-13T01:28:59;101908.72;;;17.34;86.10
72370;BME280;60343;-32.030;115.880;2023-07-13T01:31:35;101910.22;;;17.22;85.29
72370;BME280;60343;-32.030;115.880;2023-07-13T01:34:12;101912.22;;;17.13;85.86
72370;BME280;60343;-32.030;115.880;2023-07-13T01:36:53;101918.19;;;17.08;86.07
72370;BME280;60343;-32.030;115.880;2023-07-13T01:39:29;101915.31;;;17.10;86.15
72370;BME280;60343;-32.030;115.880;2023-07-13T01:42:04;101916.06;;;17.04;86.49
72370;BME280;60343;-32.030;115.880;2023-07-13T01:44:40;101908.28;;;17.15;86.64
72370;BME280;60343;-32.030;115.880;2023-07-13T01:47:15;101909.97;;;17.16;86.93
72370;BME280;60343;-32.030;115.880;2023-07-13T01:49:51;101916.47;;;17.37;87.27
72370;BME280;60343;-32.030;115.880;2023-07-13T01:52:32;101909.66;;;17.98;86.83
72370;BME280;60343;-32.030;115.880;2023-07-13T01:55:08;101910.06;;;18.44;83.50
72370;BME280;60343;-32.030;115.880;2023-07-13T01:57:43;101908.13;;;18.94;80.33
72370;BME280;60343;-32.030;115.880;2023-07-13T02:00:19;101895.13;;;19.91;78.30
72370;BME280;60343;-32.030;115.880;2023-07-13T02:02:54;101901.00;;;20.53;74.76
72370;BME280;60343;-32.030;115.880;2023-07-13T02:05:30;101896.31;;;20.93;69.81
72370;BME280;60343;-32.030;115.880;2023-07-13T02:08:11;101900.84;;;21.19;69.10
72370;BME280;60343;-32.030;115.880;2023-07-13T02:10:46;101903.09;;;21.35;69.13
72370;BME280;60343;-32.030;115.880;2023-07-13T02:13:22;101890.31;;;21.74;69.07
72370;BME280;60343;-32.030;115.880;2023-07-13T02:15:57;101894.69;;;22.13;67.21
72370;BME280;60343;-32.030;115.880;2023-07-13T02:18:32;101903.69;;;22.13;64.99
72370;BME280;60343;-32.030;115.880;2023-07-13T02:21:08;101898.97;;;22.27;65.29
72370;BME280;60343;-32.030;115.880;2023-07-13T02:23:49;101901.50;;;21.97;67.06
72370;BME280;60343;-32.030;115.880;2023-07-13T02:26:25;101907.22;;;21.51;68.61
72370;BME280;60343;-32.030;115.880;2023-07-13T02:29:00;101909.41;;;21.29;66.54
72370;BME280;60343;-32.030;115.880;2023-07-13T02:31:36;101907.66;;;20.84;68.90
72370;BME280;60343;-32.030;115.880;2023-07-13T02:34:11;101912.94;;;20.46;66.13
72370;BME280;60343;-32.030;115.880;2023-07-13T02:36:46;101916.25;;;20.15;67.36
72370;BME280;60343;-32.030;115.880;2023-07-13T02:39:27;101918.78;;;20.10;66.52
72370;BME280;60343;-32.030;115.880;2023-07-13T02:42:03;101909.75;;;20.03;63.37
72370;BME280;60343;-32.030;115.880;2023-07-13T02:44:38;101923.41;;;20.36;61.81
72370;BME280;60343;-32.030;115.880;2023-07-13T02:47:14;101922.97;;;20.59;60.80
72370;BME280;60343;-32.030;115.880;2023-07-13T02:49:49;101921.63;;;21.01;59.05
72370;BME280;60343;-32.030;115.880;2023-07-13T02:52:25;101918.97;;;21.45;59.44
72370;BME280;60343;-32.030;115.880;2023-07-13T02:55:06;101915.63;;;21.43;56.01
72370;BME280;60343;-32.030;115.880;2023-07-13T02:57:42;101913.97;;;21.42;56.25
72370;BME280;60343;-32.030;115.880;2023-07-13T03:00:18;101915.63;;;21.43;55.40
72370;BME280;60343;-32.030;115.880;2023-07-13T03:02:53;101912.59;;;21.20;55.72
72370;BME280;60343;-32.030;115.880;2023-07-13T03:05:28;101908.88;;;21.01;55.96
72370;BME280;60343;-32.030;115.880;2023-07-13T03:08:03;101914.31;;;20.88;56.39
72370;BME280;60343;-32.030;115.880;2023-07-13T03:10:45;101913.06;;;20.97;57.77
72370;BME280;60343;-32.030;115.880;2023-07-13T03:13:20;101903.97;;;21.23;54.55
72370;BME280;60343;-32.030;115.880;2023-07-13T03:15:55;101903.94;;;21.36;53.54
72370;BME280;60343;-32.030;115.880;2023-07-13T03:18:30;101906.56;;;21.56;55.10
72370;BME280;60343;-32.030;115.880;2023-07-13T03:21:06;101903.22;;;21.85;53.39
72370;BME280;60343;-32.030;115.880;2023-07-13T03:23:41;101899.38;;;21.99;52.63
72370;BME280;60343;-32.030;115.880;2023-07-13T03:26:23;101889.09;;;22.26;51.43
72370;BME280;60343;-32.030;115.880;2023-07-13T03:28:58;101889.47;;;22.30;53.27
72370;BME280;60343;-32.030;115.880;2023-07-13T03:31:35;101891.16;;;22.31;50.24
72370;BME280;60343;-32.030;115.880;2023-07-13T03:34:10;101883.69;;;21.88;52.23
72370;BME280;60343;-32.030;115.880;2023-07-13T03:36:45;101879.63;;;21.72;53.57
72370;BME280;60343;-32.030;115.880;2023-07-13T03:39:21;101878.25;;;21.88;52.97
72370;BME280;60343;-32.030;115.880;2023-07-13T03:42:02;101889.44;;;21.80;51.57
72370;BME280;60343;-32.030;115.880;2023-07-13T03:44:38;101872.00;;;21.50;52.30
72370;BME280;60343;-32.030;115.880;2023-07-13T03:47:19;101869.97;;;21.38;53.26
72370;BME280;60343;-32.030;115.880;2023-07-13T03:49:55;101869.66;;;21.22;52.50
72370;BME280;60343;-32.030;115.880;2023-07-13T03:52:31;101870.72;;;21.14;52.89
72370;BME280;60343;-32.030;115.880;2023-07-13T03:55:07;101849.50;;;21.23;53.63
72370;BME280;60343;-32.030;115.880;2023-07-13T03:57:52;101849.25;;;21.37;52.14
72370;BME280;60343;-32.030;115.880;2023-07-13T04:00:27;101840.53;;;21.54;51.56
72370;BME280;60343;-32.030;115.880;2023-07-13T04:03:02;101832.63;;;21.46;52.44
72370;BME280;60343;-32.030;115.880;2023-07-13T04:05:38;101819.88;;;21.39;51.65
72370;BME280;60343;-32.030;115.880;2023-07-13T04:08:15;101821.75;;;21.39;51.02
72370;BME280;60343;-32.030;115.880;2023-07-13T04:10:50;101813.06;;;21.24;50.91
72370;BME280;60343;-32.030;115.880;2023-07-13T04:13:31;101806.75;;;21.23;51.82
72370;BME280;60343;-32.030;115.880;2023-07-13T04:16:06;101806.81;;;21.17;51.87
72370;BME280;60343;-32.030;115.880;2023-07-13T04:18:42;101802.94;;;21.37;52.51
72370;BME280;60343;-32.030;115.880;2023-07-13T04:21:17;101805.66;;;21.37;52.69
72370;BME280;60343;-32.030;115.880;2023-07-13T04:23:53;101803.84;;;21.56;50.46
72370;BME280;60343;-32.030;115.880;2023-07-13T04:26:28;101811.75;;;21.64;50.11
72370;BME280;60343;-32.030;115.880;2023-07-13T04:29:09;101817.53;;;21.43;50.68
72370;BME280;60343;-32.030;115.880;2023-07-13T04:31:45;101819.19;;;21.51;49.96
72370;BME280;60343;-32.030;115.880;2023-07-13T04:34:20;101821.25;;;21.55;50.23
72370;BME280;60343;-32.030;115.880;2023-07-13T04:36:55;101824.19;;;21.54;50.55
72370;BME280;60343;-32.030;115.880;2023-07-13T04:39:32;101816.47;;;21.51;51.30
72370;BME280;60343;-32.030;115.880;2023-07-13T04:42:08;101816.78;;;21.67;50.03
72370;BME280;60343;-32.030;115.880;2023-07-13T04:44:55;101825.84;;;21.55;51.54
72370;BME280;60343;-32.030;115.880;2023-07-13T04:47:32;101819.63;;;21.48;50.84
72370;BME280;60343;-32.030;115.880;2023-07-13T04:50:08;101821.03;;;21.57;49.96
72370;BME280;60343;-32.030;115.880;2023-07-13T04:52:47;101816.00;;;21.54;51.47
72370;BME280;60343;-32.030;115.880;2023-07-13T04:55:22;101820.75;;;21.65;50.48
72370;BME280;60343;-32.030;115.880;2023-07-13T04:57:58;101816.31;;;21.39;51.55
72370;BME280;60343;-32.030;115.880;2023-07-13T05:00:40;101808.38;;;21.37;51.35
72370;BME280;60343;-32.030;115.880;2023-07-13T05:03:15;101820.16;;;21.31;52.15
72370;BME280;60343;-32.030;115.880;2023-07-13T05:06:01;101807.78;;;21.29;51.87
72370;BME280;60343;-32.030;115.880;2023-07-13T05:08:37;101808.91;;;21.21;52.58
72370;BME280;60343;-32.030;115.880;2023-07-13T05:11:13;101813.47;;;21.27;51.66
72370;BME280;60343;-32.030;115.880;2023-07-13T05:13:48;101803.97;;;21.36;53.57
72370;BME280;60343;-32.030;115.880;2023-07-13T05:16:29;101804.28;;;21.53;51.57
72370;BME280;60343;-32.030;115.880;2023-07-13T05:19:04;101802.56;;;21.59;49.98
72370;BME280;60343;-32.030;115.880;2023-07-13T05:21:40;101794.50;;;21.46;50.87
72370;BME280;60343;-32.030;115.880;2023-07-13T05:24:15;101785.16;;;21.28;51.43
72370;BME280;60343;-32.030;115.880;2023-07-13T05:26:50;101778.75;;;21.10;53.25
72370;BME280;60343;-32.030;115.880;2023-07-13T05:29:26;101774.81;;;21.06;53.44
72370;BME280;60343;-32.030;115.880;2023-07-13T05:32:07;101783.50;;;21.27;51.17
72370;BME280;60343;-32.030;115.880;2023-07-13T05:34:42;101782.88;;;21.25;51.17
72370;BME280;60343;-32.030;115.880;2023-07-13T05:37:18;101780.34;;;21.30;51.96
72370;BME280;60343;-32.030;115.880;2023-07-13T05:39:53;101771.50;;;21.35;52.62
72370;BME280;60343;-32.030;115.880;2023-07-13T05:42:28;101781.97;;;21.63;51.92
72370;BME280;60343;-32.030;115.880;2023-07-13T05:45:05;101771.69;;;21.65;51.48
72370;BME280;60343;-32.030;115.880;2023-07-13T05:47:46;101774.59;;;21.70;49.71
72370;BME280;60343;-32.030;115.880;2023-07-13T05:50:21;101775.31;;;21.59;49.60
72370;BME280;60343;-32.030;115.880;2023-07-13T05:52:57;101775.91;;;21.36;50.87
72370;BME280;60343;-32.030;115.880;2023-07-13T05:55:32;101771.72;;;21.33;50.60
72370;BME280;60343;-32.030;115.880;2023-07-13T05:58:07;101768.63;;;21.23;51.68
72370;BME280;60343;-32.030;115.880;2023-07-13T06:00:43;101773.22;;;21.29;51.80
72370;BME280;60343;-32.030;115.880;2023-07-13T06:03:24;101770.47;;;21.36;52.03
72370;BME280;60343;-32.030;115.880;2023-07-13T06:05:59;101768.59;;;21.30;53.01
72370;BME280;60343;-32.030;115.880;2023-07-13T06:08:35;101769.00;;;21.33;51.70
72370;BME280;60343;-32.030;115.880;2023-07-13T06:11:16;101768.59;;;21.30;52.20
72370;BME280;60343;-32.030;115.880;2023-07-13T06:13:51;101774.22;;;21.35;51.84
72370;BME280;60343;-32.030;115.880;2023-07-13T06:16:27;101766.91;;;21.35;52.61
72370;BME280;60343;-32.030;115.880;2023-07-13T06:19:08;101772.00;;;21.25;52.77
72370;BME280;60343;-32.030;115.880;2023-07-13T06:21:43;101761.97;;;21.19;52.13
72370;BME280;60343;-32.030;115.880;2023-07-13T06:24:19;101756.13;;;21.09;52.26
72370;BME280;60343;-32.030;115.880;2023-07-13T06:26:54;101759.91;;;21.15;51.60
72370;BME280;60343;-32.030;115.880;2023-07-13T06:29:29;101761.56;;;21.16;52.33
72370;BME280;60343;-32.030;115.880;2023-07-13T06:32:06;101769.09;;;21.20;52.38
72370;BME280;60343;-32.030;115.880;2023-07-13T06:34:47;101767.41;;;21.19;51.71
72370;BME280;60343;-32.030;115.880;2023-07-13T06:37:23;101764.69;;;21.13;51.22
72370;BME280;60343;-32.030;115.880;2023-07-13T06:39:58;101766.56;;;21.19;52.25
72370;BME280;60343;-32.030;115.880;2023-07-13T06:42:33;101765.50;;;20.82;52.89
72370;BME280;60343;-32.030;115.880;2023-07-13T06:45:09;101767.09;;;20.96;53.40
72370;BME280;60343;-32.030;115.880;2023-07-13T06:47:45;101772.13;;;20.92;53.10
72370;BME280;60343;-32.030;115.880;2023-07-13T06:50:26;101766.44;;;21.07;51.40
72370;BME280;60343;-32.030;115.880;2023-07-13T06:53:01;101759.31;;;20.99;52.63
72370;BME280;60343;-32.030;115.880;2023-07-13T06:55:36;101764.56;;;21.01;52.71
72370;BME280;60343;-32.030;115.880;2023-07-13T06:58:12;101749.75;;;20.90;53.12
72370;BME280;60343;-32.030;115.880;2023-07-13T07:00:51;101759.63;;;20.85;52.30
72370;BME280;60343;-32.030;115.880;2023-07-13T07:03:27;101759.81;;;20.83;52.11
72370;BME280;60343;-32.030;115.880;2023-07-13T07:06:14;101772.69;;;20.63;54.16
72370;BME280;60343;-32.030;115.880;2023-07-13T07:08:51;101773.50;;;20.64;52.64
72370;BME280;60343;-32.030;115.880;2023-07-13T07:11:27;101778.31;;;20.68;53.05
72370;BME280;60343;-32.030;115.880;2023-07-13T07:14:02;101775.66;;;20.55;54.90
72370;BME280;60343;-32.030;115.880;2023-07-13T07:16:38;101775.91;;;20.40;54.15
72370;BME280;60343;-32.030;115.880;2023-07-13T07:19:13;101772.59;;;20.32;54.10
72370;BME280;60343;-32.030;115.880;2023-07-13T07:21:54;101785.53;;;20.23;53.95
72370;BME280;60343;-32.030;115.880;2023-07-13T07:24:29;101782.63;;;20.05;55.06
72370;BME280;60343;-32.030;115.880;2023-07-13T07:27:05;101783.03;;;20.15;54.68
72370;BME280;60343;-32.030;115.880;2023-07-13T07:29:40;101777.41;;;19.97;55.17
72370;BME280;60343;-32.030;115.880;2023-07-13T07:32:16;101772.81;;;19.91;56.78
72370;BME280;60343;-32.030;115.880;2023-07-13T07:34:51;101780.78;;;19.86;56.12
72370;BME280;60343;-32.030;115.880;2023-07-13T07:37:32;101777.41;;;20.03;54.87
72370;BME280;60343;-32.030;115.880;2023-07-13T07:40:09;101787.66;;;19.95;55.21
72370;BME280;60343;-32.030;115.880;2023-07-13T07:42:44;101789.75;;;19.80;57.20
72370;BME280;60343;-32.030;115.880;2023-07-13T07:45:20;101785.56;;;19.84;55.82
72370;BME280;60343;-32.030;115.880;2023-07-13T07:47:56;101797.47;;;19.83;55.77
72370;BME280;60343;-32.030;115.880;2023-07-13T07:50:31;101804.59;;;19.64;56.05
72370;BME280;60343;-32.030;115.880;2023-07-13T07:53:13;101808.13;;;19.64;56.47
72370;BME280;60343;-32.030;115.880;2023-07-13T07:55:48;101806.66;;;19.62;56.09
72370;BME280;60343;-32.030;115.880;2023-07-13T07:58:23;101812.72;;;19.51;56.09
72370;BME280;60343;-32.030;115.880;2023-07-13T08:01:04;101808.69;;;19.40;56.62
72370;BME280;60343;-32.030;115.880;2023-07-13T08:03:40;101814.91;;;19.27;57.22
72370;BME280;60343;-32.030;115.880;2023-07-13T08:06:15;101819.28;;;19.15;57.49
72370;BME280;60343;-32.030;115.880;2023-07-13T08:08:56;101817.41;;;19.16;58.33
72370;BME280;60343;-32.030;115.880;2023-07-13T08:11:33;101827.84;;;19.19;58.55
72370;BME280;60343;-32.030;115.880;2023-07-13T08:14:09;101825.34;;;19.11;58.40
72370;BME280;60343;-32.030;115.880;2023-07-13T08:16:44;101831.16;;;19.08;58.29
72370;BME280;60343;-32.030;115.880;2023-07-13T08:19:20;101838.41;;;18.94;59.20
72370;BME280;60343;-32.030;115.880;2023-07-13T08:21:55;101830.47;;;18.86;59.71
72370;BME280;60343;-32.030;115.880;2023-07-13T08:24:36;101828.78;;;18.92;59.25
72370;BME280;60343;-32.030;115.880;2023-07-13T08:27:12;101831.84;;;18.75;59.55
72370;BME280;60343;-32.030;115.880;2023-07-13T08:29:49;101848.38;;;18.80;58.56
72370;BME280;60343;-32.030;115.880;2023-07-13T08:32:25;101850.63;;;18.77;58.79
72370;BME280;60343;-32.030;115.880;2023-07-13T08:35:00;101849.03;;;18.89;57.47
72370;BME280;60343;-32.030;115.880;2023-07-13T08:37:35;101851.28;;;18.79;57.59
72370;BME280;60343;-32.030;115.880;2023-07-13T08:40:18;101847.25;;;18.68;57.69
72370;BME280;60343;-32.030;115.880;2023-07-13T08:42:55;101853.22;;;18.57;58.00
72370;BME280;60343;-32.030;115.880;2023-07-13T08:45:43;101844.72;;;18.60;57.82
72370;BME280;60343;-32.030;115.880;2023-07-13T08:48:23;101843.88;;;18.60;57.68
72370;BME280;60343;-32.030;115.880;2023-07-13T08:51:04;101840.94;;;18.61;56.92
72370;BME280;60343;-32.030;115.880;2023-07-13T08:53:52;101837.03;;;18.42;58.47
72370;BME280;60343;-32.030;115.880;2023-07-13T08:56:35;101840.06;;;18.54;57.66
72370;BME280;60343;-32.030;115.880;2023-07-13T08:59:14;101833.34;;;18.50;56.22
72370;BME280;60343;-32.030;115.880;2023-07-13T09:02:07;101842.59;;;18.56;56.83
72370;BME280;60343;-32.030;115.880;2023-07-13T09:04:53;101849.38;;;18.45;57.00
72370;BME280;60343;-32.030;115.880;2023-07-13T09:07:39;101847.59;;;18.31;56.56
72370;BME280;60343;-32.030;115.880;2023-07-13T09:10:20;101845.03;;;18.23;57.07
72370;BME280;60343;-32.030;115.880;2023-07-13T09:13:23;101844.78;;;18.18;57.67
72370;BME280;60343;-32.030;115.880;2023-07-13T09:16:02;101861.97;;;18.25;57.59
72370;BME280;60343;-32.030;115.880;2023-07-13T09:18:40;101853.41;;;18.28;57.22
72370;BME280;60343;-32.030;115.880;2023-07-13T09:21:20;101846.06;;;18.22;58.26
72370;BME280;60343;-32.030;115.880;2023-07-13T09:24:01;101846.06;;;18.22;58.16
72370;BME280;60343;-32.030;115.880;2023-07-13T09:26:36;101840.56;;;18.09;58.78
72370;BME280;60343;-32.030;115.880;2023-07-13T09:29:22;101830.56;;;18.09;58.55
72370;BME280;60343;-32.030;115.880;2023-07-13T09:32:03;101842.25;;;18.10;59.38
72370;BME280;60343;-32.030;115.880;2023-07-13T09:34:39;101849.47;;;18.02;59.74
72370;BME280;60343;-32.030;115.880;2023-07-13T09:37:14;101852.69;;;18.13;59.54
72370;BME280;60343;-32.030;115.880;2023-07-13T09:39:50;101858.63;;;18.01;60.13
72370;BME280;60343;-32.030;115.880;2023-07-13T09:42:27;101864.75;;;18.10;59.09
72370;BME280;60343;-32.030;115.880;2023-07-13T09:45:09;101863.66;;;18.05;59.35
72370;BME280;60343;-32.030;115.880;2023-07-13T09:47:44;101869.03;;;17.98;58.44
72370;BME280;60343;-32.030;115.880;2023-07-13T09:50:19;101874.00;;;17.94;58.43
72370;BME280;60343;-32.030;115.880;2023-07-13T09:52:54;101874.03;;;18.01;57.79
72370;BME280;60343;-32.030;115.880;2023-07-13T09:55:36;101883.00;;;18.01;57.01
72370;BME280;60343;-32.030;115.880;2023-07-13T09:58:14;101892.31;;;17.92;57.24
72370;BME280;60343;-32.030;115.880;2023-07-13T10:01:10;101880.69;;;17.98;57.19
72370;BME280;60343;-32.030;115.880;2023-07-13T10:03:54;101877.59;;;18.01;57.02
72370;BME280;60343;-32.030;115.880;2023-07-13T10:06:29;101877.09;;;17.91;57.37
72370;BME280;60343;-32.030;115.880;2023-07-13T10:09:08;101886.97;;;17.78;57.39
72370;BME280;60343;-32.030;115.880;2023-07-13T10:11:44;101893.84;;;17.59;57.99
72370;BME280;60343;-32.030;115.880;2023-07-13T10:14:22;101895.66;;;17.73;57.58
72370;BME280;60343;-32.030;115.880;2023-07-13T10:17:05;101902.50;;;17.69;57.54
72370;BME280;60343;-32.030;115.880;2023-07-13T10:19:45;101905.84;;;17.71;57.21
72370;BME280;60343;-32.030;115.880;2023-07-13T10:22:26;101907.66;;;17.64;57.80
72370;BME280;60343;-32.030;115.880;2023-07-13T10:25:03;101906.94;;;17.77;56.72
72370;BME280;60343;-32.030;115.880;2023-07-13T10:27:44;101904.06;;;17.78;55.68
72370;BME280;60343;-32.030;115.880;2023-07-13T10:30:22;101905.91;;;17.78;56.64
72370;BME280;60343;-32.030;115.880;2023-07-13T10:33:10;101913.91;;;17.65;57.63
72370;BME280;60343;-32.030;115.880;2023-07-13T10:35:46;101910.44;;;17.56;57.30
72370;BME280;60343;-32.030;115.880;2023-07-13T10:38:23;101917.34;;;17.58;56.19
72370;BME280;60343;-32.030;115.880;2023-07-13T10:41:03;101920.72;;;17.46;56.02
72370;BME280;60343;-32.030;115.880;2023-07-13T10:43:41;101924.75;;;17.50;55.47
72370;BME280;60343;-32.030;115.880;2023-07-13T10:46:19;101922.16;;;17.42;55.29
72370;BME280;60343;-32.030;115.880;2023-07-13T10:49:04;101922.00;;;17.29;55.87
72370;BME280;60343;-32.030;115.880;2023-07-13T10:51:41;101926.03;;;17.18;56.41
72370;BME280;60343;-32.030;115.880;2023-07-13T10:54:19;101923.78;;;16.92;57.82
72370;BME280;60343;-32.030;115.880;2023-07-13T10:57:16;101930.44;;;16.90;58.40
72370;BME280;60343;-32.030;115.880;2023-07-13T11:00:15;101934.16;;;16.89;57.43
72370;BME280;60343;-32.030;115.880;2023-07-13T11:02:58;101941.88;;;16.77;58.16
72370;BME280;60343;-32.030;115.880;2023-07-13T11:05:41;101948.13;;;16.78;57.95
72370;BME280;60343;-32.030;115.880;2023-07-13T11:08:20;101951.28;;;16.81;56.85
72370;BME280;60343;-32.030;115.880;2023-07-13T11:11:35;101962.09;;;16.66;57.30
72370;BME280;60343;-32.030;115.880;2023-07-13T11:14:28;101952.97;;;16.82;58.08
72370;BME280;60343;-32.030;115.880;2023-07-13T11:17:32;101961.47;;;16.64;59.14
72370;BME280;60343;-32.030;115.880;2023-07-13T11:20:22;101959.03;;;16.69;60.15
72370;BME280;60343;-32.030;115.880;2023-07-13T11:23:26;101965.81;;;16.80;60.67
72370;BME280;60343;-32.030;115.880;2023-07-13T11:26:03;101971.63;;;16.92;59.33
72370;BME280;60343;-32.030;115.880;2023-07-13T11:28:41;101972.84;;;16.89;59.60
72370;BME280;60343;-32.030;115.880;2023-07-13T11:31:17;101969.09;;;16.76;60.16
72370;BME280;60343;-32.030;115.880;2023-07-13T11:33:59;101967.06;;;16.92;59.62
72370;BME280;60343;-32.030;115.880;2023-07-13T11:36:42;101978.88;;;16.77;60.14
72370;BME280;60343;-32.030;115.880;2023-07-13T11:39:29;101972.19;;;16.72;60.01
72370;BME280;60343;-32.030;115.880;2023-07-13T11:42:08;101976.75;;;16.72;59.57
72370;BME280;60343;-32.030;115.880;2023-07-13T11:44:47;101971.06;;;16.82;58.22
72370;BME280;60343;-32.030;115.880;2023-07-13T11:47:22;101976.13;;;16.85;58.05
72370;BME280;60343;-32.030;115.880;2023-07-13T11:49:59;101963.88;;;16.74;58.46
72370;BME280;60343;-32.030;115.880;2023-07-13T11:52:35;101966.38;;;16.76;57.97
72370;BME280;60343;-32.030;115.880;2023-07-13T11:55:21;101962.19;;;16.58;59.15
72370;BME280;60343;-32.030;115.880;2023-07-13T11:58:00;101954.66;;;16.68;58.26
72370;BME280;60343;-32.030;115.880;2023-07-13T12:00:37;101962.66;;;16.62;58.90
72370;BME280;60343;-32.030;115.880;2023-07-13T12:03:14;101966.38;;;16.61;60.24
72370;BME280;60343;-32.030;115.880;2023-07-13T12:06:01;101978.78;;;16.70;60.95
72370;BME280;60343;-32.030;115.880;2023-07-13T12:08:40;101972.28;;;16.56;61.88
72370;BME280;60343;-32.030;115.880;2023-07-13T12:11:22;101981.19;;;16.65;62.30
72370;BME280;60343;-32.030;115.880;2023-07-13T12:13:57;101990.06;;;16.51;63.69
72370;BME280;60343;-32.030;115.880;2023-07-13T12:16:33;101993.06;;;16.56;63.78
72370;BME280;60343;-32.030;115.880;2023-07-13T12:19:17;102013.16;;;16.61;64.14
72370;BME280;60343;-32.030;115.880;2023-07-13T12:21:56;102013.13;;;16.69;62.79
72370;BME280;60343;-32.030;115.880;2023-07-13T12:24:41;102021.41;;;16.68;63.00
72370;BME280;60343;-32.030;115.880;2023-07-13T12:27:26;102026.50;;;16.63;62.62
72370;BME280;60343;-32.030;115.880;2023-07-13T12:30:03;102027.50;;;16.85;60.60
72370;BME280;60343;-32.030;115.880;2023-07-13T12:32:39;102026.84;;;16.83;58.97
72370;BME280;60343;-32.030;115.880;2023-07-13T12:35:16;102026.38;;;16.79;59.10
72370;BME280;60343;-32.030;115.880;2023-07-13T12:37:52;102019.81;;;16.59;59.82
72370;BME280;60343;-32.030;115.880;2023-07-13T12:40:33;102011.81;;;16.57;59.43
72370;BME280;60343;-32.030;115.880;2023-07-13T12:43:21;102007.53;;;16.48;59.02
72370;BME280;60343;-32.030;115.880;2023-07-13T12:45:58;101994.56;;;16.44;59.28
72370;BME280;60343;-32.030;115.880;2023-07-13T12:48:40;101983.69;;;16.29;59.19
72370;BME280;60343;-32.030;115.880;2023-07-13T12:51:16;101996.78;;;16.17;59.65
72370;BME280;60343;-32.030;115.880;2023-07-13T12:53:57;101999.66;;;15.93;60.24
72370;BME280;60343;-32.030;115.880;2023-07-13T12:56:33;101996.72;;;16.03;59.84
72370;BME280;60343;-32.030;115.880;2023-07-13T12:59:18;101983.97;;;15.88;60.37
72370;BME280;60343;-32.030;115.880;2023-07-13T13:01:54;101989.72;;;15.85;60.44
72370;BME280;60343;-32.030;115.880;2023-07-13T13:04:31;102000.97;;;15.66;61.53
72370;BME280;60343;-32.030;115.880;2023-07-13T13:07:09;101988.00;;;15.62;61.50
72370;BME280;60343;-32.030;115.880;2023-07-13T13:09:47;101992.25;;;15.48;62.10
72370;BME280;60343;-32.030;115.880;2023-07-13T13:12:23;101995.34;;;15.37;62.44
72370;BME280;60343;-32.030;115.880;2023-07-13T13:15:06;101997.22;;;15.28;63.29
72370;BME280;60343;-32.030;115.880;2023-07-13T13:17:42;101995.22;;;15.22;63.74